Time;durP1;ratioP1;P1;durP2;ratioP2;P2;SDS_P1;SDS_P2;PMS_P1;PMS_P2;Temp;Humidity;BMP_temperature;BMP_pressure;BME280_temperature;BME280_humidity;BME280_pressure;Samples;Min_cycle;Max_cycle;Signal;HPM_P1;HPM_P2
2021/12/26 00:02:19;;;;;;;5.53;2.90;;;-10.10;99.90;;;;;;7381297;19;21233;-81
2021/12/26 00:04:45;;;;;;;4.57;2.80;;;-10.10;99.90;;;;;;7378163;19;20371;-80
2021/12/26 00:07:10;;;;;;;4.38;3.03;;;-10.10;99.90;;;;;;7378617;19;20317;-80
2021/12/26 00:09:40;;;;;;;3.10;2.90;;;-10.20;99.90;;;;;;7386462;19;20329;-80
2021/12/26 00:12:06;;;;;;;3.70;3.08;;;-10.20;99.90;;;;;;7385304;19;20360;-79
2021/12/26 00:14:32;;;;;;;4.05;3.47;;;-10.20;99.90;;;;;;7386188;19;20348;-80
2021/12/26 00:16:58;;;;;;;3.17;2.77;;;-10.20;99.90;;;;;;7393630;19;20405;-80
2021/12/26 00:19:24;;;;;;;2.73;2.53;;;-10.30;99.90;;;;;;7386612;19;20332;-81
2021/12/26 00:21:50;;;;;;;3.78;3.10;;;-10.20;99.90;;;;;;7387703;19;20341;-80
2021/12/26 00:24:16;;;;;;;3.50;3.20;;;-10.30;99.90;;;;;;7372776;19;20320;-80
2021/12/26 00:26:42;;;;;;;5.00;3.60;;;-10.40;99.90;;;;;;7387340;19;20351;-80
2021/12/26 00:29:11;;;;;;;3.30;3.00;;;-10.30;99.90;;;;;;7388906;19;20336;-81
2021/12/26 00:31:37;;;;;;;4.30;3.45;;;-10.60;99.90;;;;;;7390684;19;20329;-80
2021/12/26 00:34:03;;;;;;;6.25;3.60;;;-10.50;99.90;;;;;;7366028;19;20300;-81
2021/12/26 00:36:29;;;;;;;4.50;3.53;;;-10.60;99.90;;;;;;7390081;19;20882;-80
2021/12/26 00:38:55;;;;;;;3.10;2.80;;;-10.60;99.90;;;;;;7384649;19;20779;-80
2021/12/26 00:41:21;;;;;;;5.60;3.40;;;-10.40;99.90;;;;;;7392585;19;20349;-80
2021/12/26 00:43:47;;;;;;;5.77;3.10;;;-10.60;99.90;;;;;;7387592;19;20328;-80
2021/12/26 00:46:13;;;;;;;3.33;3.03;;;-10.60;99.90;;;;;;7384698;19;20353;-80
2021/12/26 00:48:41;;;;;;;3.40;3.07;;;-10.50;99.90;;;;;;7385344;19;20344;-79
2021/12/26 00:51:08;;;;;;;4.53;3.33;;;-10.50;99.90;;;;;;7389763;19;20343;-81
2021/12/26 00:53:34;;;;;;;3.50;3.20;;;-10.50;99.90;;;;;;7382683;19;20364;-80
2021/12/26 00:56:00;;;;;;;2.70;2.25;;;-10.50;99.90;;;;;;7391272;19;20356;-79
2021/12/26 00:58:26;;;;;;;3.13;2.83;;;-10.40;99.90;;;;;;7389710;19;20408;-80
2021/12/26 01:00:52;;;;;;;2.53;2.33;;;-10.40;99.90;;;;;;7390027;19;20345;-80
2021/12/26 01:03:18;;;;;;;5.10;3.07;;;-10.40;99.90;;;;;;7387975;19;20369;-80
2021/12/26 01:05:50;;;;;;;3.70;3.03;;;-10.40;99.90;;;;;;7392482;19;20417;-78
2021/12/26 01:08:20;;;;;;;3.65;3.17;;;-10.40;99.90;;;;;;7396747;19;20677;-80
2021/12/26 01:10:58;;;;;;;2.67;2.45;;;-10.40;99.90;;;;;;7373100;19;20344;-80
2021/12/26 01:13:36;;;;;;;3.00;2.70;;;-10.40;99.90;;;;;;7390740;19;20347;-80
2021/12/26 01:16:17;;;;;;;3.10;2.80;;;-10.40;99.90;;;;;;7389454;19;20385;-80
2021/12/26 01:18:51;;;;;;;3.00;2.70;;;-10.40;99.90;;;;;;7354480;19;20380;-80
2021/12/26 01:21:22;;;;;;;3.58;2.75;;;-10.40;99.90;;;;;;7387895;19;20333;-80
2021/12/26 01:24:00;;;;;;;3.97;2.88;;;-10.40;99.90;;;;;;7382009;19;20353;-80
2021/12/26 01:26:26;;;;;;;3.22;3.00;;;-10.60;99.90;;;;;;7387590;19;20340;-81
2021/12/26 01:28:52;;;;;;;2.85;2.65;;;-10.40;99.90;;;;;;7388353;19;20357;-80
2021/12/26 01:31:20;;;;;;;3.10;2.83;;;-10.40;99.90;;;;;;7388251;19;20334;-80
2021/12/26 01:34:05;;;;;;;3.65;3.00;;;-10.40;99.90;;;;;;7387130;19;20337;-79
2021/12/26 01:36:53;;;;;;;4.38;3.03;;;-10.40;99.90;;;;;;7282577;19;2004335;-80
2021/12/26 01:39:46;;;;;;;4.03;3.72;;;-10.50;99.90;;;;;;7388168;19;20364;-80
2021/12/26 01:42:19;;;;;;;3.55;3.25;;;-10.60;99.90;;;;;;7385363;19;20355;-80
2021/12/26 01:44:55;;;;;;;3.28;2.97;;;-10.50;99.90;;;;;;7384890;19;20967;-80
2021/12/26 01:47:23;;;;;;;4.20;3.60;;;-10.50;99.90;;;;;;7385716;19;20917;-81
2021/12/26 01:49:49;;;;;;;3.88;3.08;;;-10.60;99.90;;;;;;7384749;19;20360;-79
2021/12/26 01:52:14;;;;;;;4.95;3.17;;;-10.60;99.90;;;;;;7383994;19;20367;-80
2021/12/26 01:54:48;;;;;;;4.20;2.97;;;-10.70;99.90;;;;;;7386489;19;20325;-81
2021/12/26 01:57:17;;;;;;;3.72;3.35;;;-10.70;99.90;;;;;;7284992;19;2004402;-80
2021/12/26 01:59:45;;;;;;;3.55;3.15;;;-10.70;99.90;;;;;;7384260;19;20366;-81
2021/12/26 02:02:21;;;;;;;3.67;3.28;;;-10.70;99.90;;;;;;7388494;19;20357;-80
2021/12/26 02:04:48;;;;;;;3.35;3.05;;;-10.50;99.90;;;;;;7386321;19;20368;-80
2021/12/26 02:07:16;;;;;;;3.70;3.40;;;-10.70;99.90;;;;;;7384845;19;20334;-80
2021/12/26 02:09:45;;;;;;;5.13;3.33;;;-10.60;99.90;;;;;;7382673;19;20348;-80
2021/12/26 02:12:15;;;;;;;4.15;3.75;;;-10.70;99.90;;;;;;7384913;19;20357;-80
2021/12/26 02:14:41;;;;;;;6.43;3.80;;;-10.70;99.90;;;;;;7383699;19;20312;-80
2021/12/26 02:17:33;;;;;;;4.13;3.55;;;-10.80;99.90;;;;;;7281931;19;2004420;-80
2021/12/26 02:20:27;;;;;;;5.88;3.20;;;-10.80;99.90;;;;;;7385708;19;20316;-80
2021/12/26 02:22:58;;;;;;;5.00;3.30;;;-10.80;99.90;;;;;;7369120;19;20357;-80
2021/12/26 02:25:31;;;;;;;3.97;2.92;;;-10.70;99.90;;;;;;7387491;19;20344;-80
2021/12/26 02:27:57;;;;;;;3.13;2.83;;;-10.70;99.90;;;;;;7385856;19;20336;-80
2021/12/26 02:30:23;;;;;;;4.60;3.10;;;-10.70;99.90;;;;;;7386671;19;20343;-80
2021/12/26 02:32:52;;;;;;;3.38;3.08;;;-10.80;99.90;;;;;;7390854;19;20340;-79
2021/12/26 02:35:20;;;;;;;6.32;4.03;;;-10.80;99.90;;;;;;7388110;19;20343;-80
2021/12/26 02:37:46;;;;;;;2.63;2.42;;;-10.80;99.90;;;;;;7392537;19;20339;-79
2021/12/26 02:40:13;;;;;;;4.00;3.38;;;-10.70;99.90;;;;;;7365630;19;20416;-80
2021/12/26 02:42:39;;;;;;;2.88;2.60;;;-10.90;99.90;;;;;;7383802;19;20357;-80
2021/12/26 02:45:05;;;;;;;4.18;3.15;;;-10.90;99.90;;;;;;7372733;19;20313;-79
2021/12/26 02:47:36;;;;;;;3.85;3.30;;;-10.90;99.90;;;;;;7386108;19;20371;-80
2021/12/26 02:50:04;;;;;;;2.50;2.15;;;-10.90;99.90;;;;;;7384076;19;20333;-79
2021/12/26 02:52:30;;;;;;;3.55;3.25;;;-10.90;99.90;;;;;;7383696;19;20308;-79
2021/12/26 02:54:57;;;;;;;4.70;3.38;;;-10.90;99.90;;;;;;7388415;19;20305;-79
2021/12/26 02:57:23;;;;;;;2.80;2.55;;;-11.00;99.90;;;;;;7385902;19;20328;-81
2021/12/26 02:59:49;;;;;;;2.83;2.63;;;-11.00;99.90;;;;;;7385237;19;20324;-81
2021/12/26 03:02:15;;;;;;;3.38;2.85;;;-11.00;99.90;;;;;;7384670;19;20316;-80
2021/12/26 03:04:41;;;;;;;3.10;2.80;;;-11.00;99.90;;;;;;7383877;19;20325;-80
2021/12/26 03:07:07;;;;;;;5.10;3.25;;;-11.00;99.90;;;;;;7386102;19;20324;-80
2021/12/26 03:09:42;;;;;;;3.55;3.22;;;-11.00;99.90;;;;;;7381472;19;20316;-79
2021/12/26 03:12:09;;;;;;;3.67;2.90;;;-11.10;99.90;;;;;;7381328;19;20361;-80
2021/12/26 03:14:38;;;;;;;3.70;2.83;;;-11.00;99.90;;;;;;7384537;19;20360;-80
2021/12/26 03:17:04;;;;;;;2.55;2.35;;;-11.10;99.90;;;;;;7384520;19;20334;-80
2021/12/26 03:19:35;;;;;;;3.88;2.90;;;-11.10;99.90;;;;;;7380157;19;20352;-80
2021/12/26 03:22:01;;;;;;;5.07;2.90;;;-11.10;99.90;;;;;;7384450;19;20452;-80
2021/12/26 03:24:27;;;;;;;3.70;2.53;;;-11.10;99.90;;;;;;7383097;19;20312;-79
2021/12/26 03:27:03;;;;;;;3.97;2.92;;;-11.20;99.90;;;;;;7382997;19;20756;-81
2021/12/26 03:29:29;;;;;;;3.25;2.95;;;-11.20;99.90;;;;;;7384430;19;20360;-80
2021/12/26 03:31:56;;;;;;;7.43;3.55;;;-11.40;99.90;;;;;;7384693;19;21156;-80
2021/12/26 03:34:21;;;;;;;3.10;2.83;;;-11.30;99.90;;;;;;7383236;19;20351;-80
2021/12/26 03:36:52;;;;;;;3.53;3.22;;;-11.30;99.90;;;;;;7384027;19;20919;-80
2021/12/26 03:39:20;;;;;;;3.80;3.13;;;-11.40;99.90;;;;;;7378183;19;20396;-79
2021/12/26 03:41:46;;;;;;;6.85;3.97;;;-11.50;99.90;;;;;;7384971;19;20867;-80
2021/12/26 03:44:13;;;;;;;3.45;3.08;;;-11.30;99.90;;;;;;7380270;19;20349;-80
2021/12/26 03:46:39;;;;;;;5.45;3.63;;;-11.30;99.90;;;;;;7387926;19;21116;-80
2021/12/26 03:49:06;;;;;;;4.32;3.80;;;-11.30;99.90;;;;;;7391046;19;20328;-80
2021/12/26 03:51:33;;;;;;;5.82;3.75;;;-11.20;99.90;;;;;;7394836;19;20344;-79
2021/12/26 03:54:05;;;;;;;2.85;2.63;;;-11.30;99.90;;;;;;7390051;19;20352;-80
2021/12/26 03:56:31;;;;;;;3.83;3.03;;;-11.40;99.90;;;;;;7394567;19;20356;-79
2021/12/26 03:59:05;;;;;;;3.17;2.87;;;-11.50;99.90;;;;;;7288229;19;2006009;-80
2021/12/26 04:01:31;;;;;;;6.40;3.72;;;-11.40;99.90;;;;;;7392611;19;20324;-79
2021/12/26 04:03:57;;;;;;;3.25;2.95;;;-11.50;99.90;;;;;;7388860;19;20309;-79
2021/12/26 04:06:23;;;;;;;3.75;3.17;;;-11.50;99.90;;;;;;7393932;19;20648;-80
2021/12/26 04:08:49;;;;;;;4.95;3.50;;;-11.50;99.90;;;;;;7390467;19;20305;-80
2021/12/26 04:11:15;;;;;;;3.25;2.25;;;-11.40;99.90;;;;;;7388045;19;20296;-81
2021/12/26 04:13:41;;;;;;;3.92;3.55;;;-11.30;99.90;;;;;;7391228;19;20324;-79
2021/12/26 04:16:07;;;;;;;4.38;3.70;;;-11.30;99.90;;;;;;7390713;19;20332;-81
2021/12/26 04:18:33;;;;;;;4.38;3.35;;;-11.30;99.90;;;;;;7391199;19;20863;-80
2021/12/26 04:20:59;;;;;;;3.47;3.13;;;-11.40;99.90;;;;;;7393655;19;20392;-80
2021/12/26 04:23:29;;;;;;;3.33;2.75;;;-11.40;99.90;;;;;;7391231;19;20360;-80
2021/12/26 04:25:54;;;;;;;3.95;3.20;;;-11.30;99.90;;;;;;7391804;19;20293;-79
2021/12/26 04:28:20;;;;;;;3.03;2.80;;;-11.20;99.90;;;;;;7375948;19;20337;-80
2021/12/26 04:30:46;;;;;;;4.93;3.67;;;-11.30;99.90;;;;;;7393545;19;20336;-80
2021/12/26 04:33:12;;;;;;;3.80;3.50;;;-11.30;99.90;;;;;;7393550;19;20301;-80
2021/12/26 04:35:38;;;;;;;4.97;3.65;;;-11.40;99.90;;;;;;7387651;19;20347;-80
2021/12/26 04:38:03;;;;;;;4.88;3.95;;;-11.40;99.90;;;;;;7389125;19;20331;-79
2021/12/26 04:40:29;;;;;;;4.10;3.72;;;-11.40;99.90;;;;;;7389917;19;20913;-80
2021/12/26 04:43:15;;;;;;;6.35;4.55;;;-11.30;99.90;;;;;;7290377;19;2004419;-80
2021/12/26 04:46:11;;;;;;;5.03;4.05;;;-11.30;99.90;;;;;;7290119;19;2004188;-80
2021/12/26 04:49:02;;;;;;;4.47;4.07;;;-11.30;99.90;;;;;;7282979;19;2010761;-79
2021/12/26 04:51:28;;;;;;;5.82;4.38;;;-11.40;99.90;;;;;;7389983;19;21044;-80
2021/12/26 04:53:58;;;;;;;5.40;4.47;;;-11.40;99.90;;;;;;7386057;19;20873;-79
2021/12/26 04:56:23;;;;;;;5.03;4.27;;;-11.50;99.90;;;;;;7386631;19;20420;-79
2021/12/26 04:58:51;;;;;;;4.95;4.38;;;-11.50;99.90;;;;;;7386201;19;20338;-80
2021/12/26 05:01:17;;;;;;;8.50;4.67;;;-11.40;99.90;;;;;;7385868;19;20324;-80
2021/12/26 05:03:44;;;;;;;5.15;4.60;;;-11.40;99.90;;;;;;7384089;19;20850;-79
2021/12/26 05:06:11;;;;;;;6.10;5.00;;;-11.50;99.90;;;;;;7387806;19;20337;-80
2021/12/26 05:08:36;;;;;;;6.00;5.05;;;-11.40;99.90;;;;;;7386272;19;20337;-80
2021/12/26 05:11:02;;;;;;;8.18;5.57;;;-11.20;99.90;;;;;;7388484;19;20333;-80
2021/12/26 05:13:30;;;;;;;5.57;4.65;;;-11.40;99.90;;;;;;7389242;19;20392;-78
2021/12/26 05:15:56;;;;;;;5.65;5.05;;;-11.40;99.90;;;;;;7388965;19;20345;-79
2021/12/26 05:18:22;;;;;;;9.35;5.15;;;-11.40;99.90;;;;;;7386398;19;20317;-78
2021/12/26 05:20:56;;;;;;;8.50;5.28;;;-11.50;99.90;;;;;;7390682;19;20949;-79
2021/12/26 05:23:22;;;;;;;9.55;5.72;;;-11.60;99.90;;;;;;7387558;19;21015;-79
2021/12/26 05:25:49;;;;;;;5.93;5.20;;;-11.60;99.90;;;;;;7386920;19;20388;-79
2021/12/26 05:28:14;;;;;;;8.27;5.57;;;-11.60;99.90;;;;;;7386685;19;20329;-79
2021/12/26 05:30:41;;;;;;;8.30;5.57;;;-11.70;99.90;;;;;;7389191;19;20373;-80
2021/12/26 05:33:26;;;;;;;6.88;5.57;;;-11.70;99.90;;;;;;7387591;19;20353;-79
2021/12/26 05:35:55;;;;;;;9.25;5.07;;;-11.70;99.90;;;;;;7386611;19;20724;-80
2021/12/26 05:38:22;;;;;;;12.32;6.40;;;-11.60;99.90;;;;;;7385773;19;20332;-80
2021/12/26 05:40:49;;;;;;;7.15;6.05;;;-11.70;99.90;;;;;;7387157;19;20377;-79
2021/12/26 05:43:15;;;;;;;11.25;6.43;;;-11.80;99.90;;;;;;7383202;19;20336;-80
2021/12/26 05:45:42;;;;;;;8.68;6.20;;;-11.80;99.90;;;;;;7386159;19;20317;-80
2021/12/26 05:48:15;;;;;;;7.55;6.03;;;-11.80;99.90;;;;;;7285426;19;2004385;-79
2021/12/26 05:50:41;;;;;;;11.43;6.67;;;-11.80;99.90;;;;;;7388388;19;21247;-80
2021/12/26 05:53:22;;;;;;;9.87;6.57;;;-11.80;99.90;;;;;;7385345;19;21147;-79
2021/12/26 05:55:48;;;;;;;9.70;6.83;;;-11.80;99.90;;;;;;7386245;19;20328;-80
2021/12/26 05:58:14;;;;;;;11.07;6.63;;;-11.80;99.90;;;;;;7388711;19;20870;-80
2021/12/26 06:00:41;;;;;;;9.10;6.57;;;-11.80;99.90;;;;;;7380837;19;21075;-80
2021/12/26 06:03:07;;;;;;;8.60;6.57;;;-11.70;99.90;;;;;;7384634;19;20332;-80
2021/12/26 06:05:33;;;;;;;13.05;7.78;;;-11.70;99.90;;;;;;7388559;19;20312;-80
2021/12/26 06:07:59;;;;;;;9.45;6.75;;;-11.70;99.90;;;;;;7386539;19;20882;-79
2021/12/26 06:10:26;;;;;;;7.40;5.55;;;-11.70;99.90;;;;;;7384753;19;20321;-80
2021/12/26 06:12:52;;;;;;;10.70;7.68;;;-11.50;99.90;;;;;;7385953;19;21380;-80
2021/12/26 06:15:19;;;;;;;10.25;7.25;;;-11.60;99.90;;;;;;7370216;19;20657;-80
2021/12/26 06:17:45;;;;;;;11.18;7.20;;;-11.70;99.90;;;;;;7383671;19;20727;-80
2021/12/26 06:20:29;;;;;;;8.88;7.53;;;-11.80;99.90;;;;;;7364601;19;21092;-81
2021/12/26 06:23:14;;;;;;;7.88;7.13;;;-11.80;99.90;;;;;;7385569;19;20329;-80
2021/12/26 06:25:45;;;;;;;12.43;7.40;;;-11.80;99.90;;;;;;7386685;19;20337;-79
2021/12/26 06:28:23;;;;;;;10.23;6.60;;;-11.70;99.90;;;;;;7386399;19;20347;-80
2021/12/26 06:31:07;;;;;;;10.82;6.95;;;-11.70;99.90;;;;;;7390101;19;20377;-80
2021/12/26 06:33:51;;;;;;;12.90;8.20;;;-11.70;99.90;;;;;;7387846;19;20368;-79
2021/12/26 06:36:36;;;;;;;10.15;7.50;;;-11.60;99.90;;;;;;7286316;19;2004335;-80
2021/12/26 06:39:20;;;;;;;13.50;8.57;;;-11.60;99.90;;;;;;7283229;19;2004417;-80
2021/12/26 06:42:04;;;;;;;13.80;8.35;;;-11.80;99.90;;;;;;7389382;19;20404;-80
2021/12/26 06:44:39;;;;;;;10.95;7.57;;;-11.80;99.90;;;;;;7386743;19;20336;-79
2021/12/26 06:47:10;;;;;;;14.00;7.40;;;-11.80;99.90;;;;;;7388900;19;20376;-80
2021/12/26 06:49:38;;;;;;;8.18;7.28;;;-11.70;99.90;;;;;;7388028;19;20321;-78
2021/12/26 06:52:05;;;;;;;16.02;8.10;;;-11.70;99.90;;;;;;7388286;19;20325;-79
2021/12/26 06:54:30;;;;;;;13.52;6.97;;;-11.70;99.90;;;;;;7381659;19;20355;-79
2021/12/26 06:56:56;;;;;;;14.88;7.93;;;-11.70;99.90;;;;;;7384377;19;20321;-79
2021/12/26 06:59:22;;;;;;;9.18;7.05;;;-11.80;99.90;;;;;;7385150;19;20392;-79
2021/12/26 07:01:48;;;;;;;11.10;8.63;;;-11.70;99.90;;;;;;7385605;19;21041;-79
2021/12/26 07:04:16;;;;;;;13.00;8.37;;;-11.80;99.90;;;;;;7382976;19;20363;-79
2021/12/26 07:06:45;;;;;;;7.55;6.72;;;-11.80;99.90;;;;;;7384998;19;20341;-79
2021/12/26 07:09:20;;;;;;;8.52;7.25;;;-11.80;99.90;;;;;;7387911;19;20342;-81
2021/12/26 07:12:00;;;;;;;10.38;7.82;;;-11.70;99.90;;;;;;7366119;19;20297;-81
2021/12/26 07:14:39;;;;;;;8.60;6.45;;;-11.80;99.90;;;;;;7288159;19;2004367;-79
2021/12/26 07:17:05;;;;;;;12.35;7.15;;;-11.80;99.90;;;;;;7383960;19;20331;-78
2021/12/26 07:19:31;;;;;;;12.05;8.32;;;-11.70;99.90;;;;;;7388492;19;20329;-80
2021/12/26 07:22:07;;;;;;;15.77;9.50;;;-11.80;99.90;;;;;;7389799;19;20347;-78
2021/12/26 07:24:37;;;;;;;9.18;7.85;;;-11.80;99.90;;;;;;7390746;19;20312;-79
2021/12/26 07:27:05;;;;;;;14.02;8.30;;;-11.80;99.90;;;;;;7394221;19;20329;-79
2021/12/26 07:29:51;;;;;;;14.10;8.90;;;-11.90;99.90;;;;;;7393189;19;20883;-78
2021/12/26 07:32:44;;;;;;;12.52;9.40;;;-11.70;99.90;;;;;;7344645;19;20344;-79
2021/12/26 07:45:58;;;;;;;13.77;8.75;;;-11.80;99.90;;;;;;7108761;19;2004396;-80
2021/12/26 07:48:37;;;;;;;16.23;8.50;;;-11.70;99.90;;;;;;7266558;19;2004516;-80
2021/12/26 07:54:32;;;;;;;11.98;8.50;;;-11.70;99.90;;;;;;7296548;19;2004406;-80
2021/12/26 07:57:28;;;;;;;16.83;9.68;;;-11.60;99.90;;;;;;7237983;19;2004602;-79
2021/12/26 08:00:52;;;;;;;12.13;8.30;;;-11.70;99.90;;;;;;7249796;19;2004439;-80
2021/12/26 08:04:10;;;;;;;17.67;9.00;;;-11.50;99.90;;;;;;7360765;19;20636;-80
2021/12/26 08:09:56;;;;;;;8.85;7.95;;;-11.50;99.90;;;;;;7292875;19;20373;-80
2021/12/26 08:13:12;;;;;;;14.53;8.97;;;-11.50;99.90;;;;;;7300125;19;2004293;-80
2021/12/26 08:15:39;;;;;;;15.90;9.18;;;-11.40;99.90;;;;;;7332424;19;20400;-80
2021/12/26 08:18:07;;;;;;;12.43;9.18;;;-11.60;99.90;;;;;;7364864;19;20317;-81
2021/12/26 08:21:11;;;;;;;12.25;7.72;;;-11.30;99.90;;;;;;7354853;19;20369;-79
2021/12/26 08:23:42;;;;;;;14.00;8.52;;;-11.30;99.90;;;;;;7288909;19;20322;-80
2021/12/26 08:26:20;;;;;;;10.85;6.72;;;-11.20;99.90;;;;;;7394192;19;20321;-80
2021/12/26 08:28:55;;;;;;;10.60;8.52;;;-11.10;99.90;;;;;;7343434;19;20339;-80
2021/12/26 08:31:30;;;;;;;9.93;8.60;;;-11.10;99.90;;;;;;7351987;19;20325;-80
2021/12/26 08:34:04;;;;;;;11.13;8.88;;;-10.90;99.90;;;;;;7358559;19;20359;-79
2021/12/26 08:36:31;;;;;;;14.80;9.35;;;-10.90;99.90;;;;;;7365219;19;20348;-79
2021/12/26 08:38:58;;;;;;;12.23;9.60;;;-10.90;99.90;;;;;;7367017;19;20396;-80
2021/12/26 08:41:24;;;;;;;15.75;9.90;;;-10.80;99.90;;;;;;7390434;19;20328;-80
2021/12/26 08:43:55;;;;;;;12.40;8.82;;;-10.70;99.90;;;;;;7388886;19;20981;-78
2021/12/26 08:46:22;;;;;;;10.98;8.65;;;-10.90;99.90;;;;;;7388400;19;20404;-79
2021/12/26 08:48:47;;;;;;;16.92;10.80;;;-10.70;99.90;;;;;;7387051;19;20340;-79
2021/12/26 08:51:13;;;;;;;11.90;8.90;;;-10.60;99.90;;;;;;7390636;19;20336;-81
2021/12/26 08:53:39;;;;;;;14.73;9.05;;;-10.60;99.90;;;;;;7387359;19;20320;-79
2021/12/26 08:56:05;;;;;;;15.68;8.90;;;-10.50;99.90;;;;;;7385682;19;20309;-79
2021/12/26 08:58:30;;;;;;;16.07;9.03;;;-10.40;99.90;;;;;;7386677;19;20340;-78
2021/12/26 09:00:56;;;;;;;13.55;9.10;;;-10.40;99.90;;;;;;7386495;19;20313;-79
2021/12/26 09:03:22;;;;;;;13.73;10.30;;;-10.40;99.90;;;;;;7385709;19;20392;-79
2021/12/26 09:05:48;;;;;;;12.95;9.05;;;-10.30;99.90;;;;;;7389366;19;20317;-80
2021/12/26 09:08:14;;;;;;;15.80;9.85;;;-10.20;99.90;;;;;;7386726;19;20353;-79
2021/12/26 09:10:42;;;;;;;15.27;9.25;;;-10.20;99.90;;;;;;7391329;19;20635;-80
2021/12/26 09:13:08;;;;;;;11.27;8.90;;;-10.10;99.90;;;;;;7391564;19;20416;-78
2021/12/26 09:15:34;;;;;;;19.50;10.63;;;-10.00;99.90;;;;;;7388001;19;20903;-79
2021/12/26 09:18:03;;;;;;;13.27;9.95;;;-10.00;99.90;;;;;;7386824;19;20317;-79
2021/12/26 09:20:29;;;;;;;15.00;9.90;;;-9.90;99.90;;;;;;7383684;19;20345;-78
2021/12/26 09:22:55;;;;;;;12.73;9.85;;;-9.90;99.90;;;;;;7386049;19;20325;-79
2021/12/26 09:25:21;;;;;;;21.47;10.03;;;-9.80;99.90;;;;;;7369166;19;20327;-79
2021/12/26 09:27:47;;;;;;;13.53;10.50;;;-9.70;99.90;;;;;;7383701;19;20325;-79
2021/12/26 09:30:13;;;;;;;10.05;8.73;;;-9.60;99.90;;;;;;7381951;19;20313;-79
2021/12/26 09:32:39;;;;;;;12.02;8.48;;;-9.60;99.90;;;;;;7380151;19;20332;-79
2021/12/26 09:35:08;;;;;;;10.88;8.95;;;-9.30;99.90;;;;;;7382689;19;20333;-79
2021/12/26 09:37:34;;;;;;;15.70;9.88;;;-9.30;99.90;;;;;;7381294;19;20339;-80
2021/12/26 09:40:03;;;;;;;12.77;9.27;;;-9.30;99.90;;;;;;7382748;19;20895;-80
2021/12/26 09:42:29;;;;;;;12.25;8.63;;;-9.20;99.90;;;;;;7389057;19;20429;-79
2021/12/26 09:44:55;;;;;;;13.23;9.43;;;-9.20;99.90;;;;;;7361436;19;20746;-80
2021/12/26 09:47:21;;;;;;;24.88;16.55;;;-9.10;99.90;;;;;;7382821;19;20348;-80
2021/12/26 09:49:48;;;;;;;16.88;10.48;;;-9.00;99.90;;;;;;7385545;19;20818;-79
2021/12/26 09:52:14;;;;;;;13.25;9.02;;;-8.90;99.90;;;;;;7383221;19;20395;-79
2021/12/26 09:54:42;;;;;;;15.17;8.97;;;-8.80;99.90;;;;;;7381945;19;20340;-80
2021/12/26 09:57:08;;;;;;;13.60;9.55;;;-8.70;99.90;;;;;;7384364;19;20653;-80
2021/12/26 09:59:35;;;;;;;21.20;10.70;;;-8.60;99.90;;;;;;7376431;19;20387;-80
2021/12/26 10:02:08;;;;;;;13.02;10.00;;;-8.60;99.90;;;;;;7359523;19;20333;-79
2021/12/26 10:04:35;;;;;;;15.32;10.10;;;-8.40;99.90;;;;;;7381474;19;20435;-80
2021/12/26 10:07:05;;;;;;;16.63;11.10;;;-8.30;99.90;;;;;;7379971;19;20355;-80
2021/12/26 10:09:32;;;;;;;18.92;11.07;;;-8.20;99.90;;;;;;7380459;19;20388;-81
2021/12/26 10:12:02;;;;;;;14.77;9.50;;;-8.10;99.90;;;;;;7379227;19;20320;-79
2021/12/26 10:14:29;;;;;;;12.88;10.25;;;-8.10;99.90;;;;;;7384231;19;20439;-79
2021/12/26 10:16:57;;;;;;;14.18;10.00;;;-8.00;99.90;;;;;;7360901;19;20340;-80
2021/12/26 10:19:23;;;;;;;14.18;10.07;;;-8.00;99.90;;;;;;7379256;19;20464;-79
2021/12/26 10:21:57;;;;;;;12.82;10.15;;;-7.90;99.90;;;;;;7383207;19;20336;-80
2021/12/26 10:24:25;;;;;;;12.65;9.23;;;-7.80;99.90;;;;;;7360605;19;20995;-79
2021/12/26 10:27:04;;;;;;;10.77;8.70;;;-7.80;99.90;;;;;;7341336;19;20341;-80
2021/12/26 10:29:44;;;;;;;12.65;8.25;;;-7.70;99.90;;;;;;7369745;19;20375;-79
2021/12/26 10:32:18;;;;;;;15.60;10.70;;;-7.40;99.90;;;;;;7375977;19;20328;-80
2021/12/26 10:35:06;;;;;;;16.05;10.93;;;-7.20;99.90;;;;;;7377127;19;20352;-80
2021/12/26 10:37:38;;;;;;;32.37;19.77;;;-7.20;99.90;;;;;;7273447;19;2004394;-79
2021/12/26 10:40:14;;;;;;;18.85;15.13;;;-7.00;99.90;;;;;;7380488;19;20356;-80
2021/12/26 10:46:31;;;;;;;12.65;8.93;;;-7.00;99.90;;;;;;7398197;19;20363;-81
2021/12/26 10:49:30;;;;;;;14.77;10.13;;;-6.80;99.90;;;;;;7377795;19;20426;-78
2021/12/26 10:51:56;;;;;;;14.52;10.93;;;-6.70;99.90;;;;;;7389238;19;20325;-82
2021/12/26 10:54:30;;;;;;;13.77;9.25;;;-6.60;99.90;;;;;;7385872;19;20312;-80
2021/12/26 10:57:48;;;;;;;15.95;9.85;;;-6.50;99.90;;;;;;7351330;19;20389;-83
2021/12/26 11:08:21;;;;;;;16.20;10.83;;;-6.20;99.90;;;;;;7318020;19;20972;-81
2021/12/26 11:18:30;;;;;;;15.13;11.55;;;-5.90;99.90;;;;;;7338092;19;20685;-82
2021/12/26 11:31:55;;;;;;;16.20;11.40;;;-4.90;99.90;;;;;;7390432;19;20347;-81
2021/12/26 11:35:07;;;;;;;24.50;14.13;;;-4.70;99.90;;;;;;7350837;19;20919;-81
2021/12/26 11:42:42;;;;;;;18.63;12.82;;;-4.30;99.90;;;;;;7156314;19;2004482;-79
2021/12/26 11:46:08;;;;;;;19.40;13.55;;;-4.00;99.90;;;;;;7288586;19;2004421;-78
2021/12/26 11:55:02;;;;;;;19.02;12.85;;;-3.30;99.90;;;;;;7366909;19;20330;-83
2021/12/26 11:57:59;;;;;;;29.60;14.97;;;-3.20;99.90;;;;;;7289200;19;2004420;-85
2021/12/26 12:00:27;;;;;;;19.17;14.38;;;-3.20;99.90;;;;;;7392906;19;20324;-84
2021/12/26 12:03:00;;;;;;;25.35;14.90;;;-3.20;99.90;;;;;;7393273;19;20324;-82
2021/12/26 12:06:33;;;;;;;24.13;14.27;;;-3.10;99.90;;;;;;7352726;19;20384;-80
2021/12/26 12:12:23;;;;;;;18.10;14.18;;;-2.80;99.90;;;;;;7340765;19;20344;-80
2021/12/26 12:14:56;;;;;;;24.40;14.15;;;-2.70;99.90;;;;;;7373333;19;20892;-79
2021/12/26 12:17:28;;;;;;;19.65;14.77;;;-2.70;99.90;;;;;;7389022;19;20657;-80
2021/12/26 12:37:50;;;;;;;24.85;16.70;;;-3.10;99.90;;;;;;7276636;19;2004281;-81
2021/12/26 12:41:38;;;;;;;19.67;13.27;;;-3.40;99.90;;;;;;7273443;19;20353;-81
2021/12/26 12:45:20;;;;;;;22.75;13.00;;;-3.50;99.90;;;;;;7272980;19;2004506;-84
2021/12/26 12:52:23;;;;;;;24.23;16.33;;;-3.50;99.90;;;;;;7142453;19;2004436;-78
2021/12/26 12:55:53;;;;;;;20.65;13.40;;;-3.50;99.90;;;;;;7399994;19;20360;-79
2021/12/26 12:59:35;;;;;;;21.90;14.68;;;-3.40;99.90;;;;;;7342533;19;20365;-81
2021/12/26 13:06:19;;;;;;;19.00;15.25;;;-3.60;99.90;;;;;;7077351;19;2004483;-82
2021/12/26 13:09:55;;;;;;;21.90;15.02;;;-3.70;99.90;;;;;;7215515;19;2004436;-83
2021/12/26 13:20:34;;;;;;;18.85;12.07;;;-3.50;99.90;;;;;;7066927;19;2004275;-82
2021/12/26 13:24:26;;;;;;;19.87;13.70;;;-3.30;99.90;;;;;;7118839;19;2004966;-79
2021/12/26 13:28:34;;;;;;;23.05;14.93;;;-3.40;99.90;;;;;;7376718;19;20933;-78
2021/12/26 13:32:12;;;;;;;28.45;14.40;;;-3.40;99.90;;;;;;7222907;19;2004341;-80
2021/12/26 13:35:35;;;;;;;18.88;13.98;;;-3.30;99.90;;;;;;7398763;19;20385;-78
2021/12/26 13:38:25;;;;;;;18.38;13.73;;;-3.50;99.90;;;;;;7273979;19;2004190;-79
2021/12/26 13:49:25;;;;;;;18.60;12.50;;;-3.60;99.90;;;;;;7269676;19;2004400;-85
2021/12/26 13:52:25;;;;;;;17.20;12.27;;;-3.70;99.90;;;;;;7218488;19;2004697;-80
2021/12/26 13:55:34;;;;;;;17.85;10.70;;;-3.70;99.90;;;;;;7249652;19;2004722;-81
2021/12/26 13:58:49;;;;;;;15.23;10.98;;;-3.70;99.90;;;;;;7402044;19;20336;-78
2021/12/26 14:01:43;;;;;;;16.63;12.50;;;-3.60;99.90;;;;;;7146881;19;2004412;-80
2021/12/26 14:05:13;;;;;;;23.17;15.65;;;-3.70;99.90;;;;;;7291286;19;2004404;-79
2021/12/26 14:11:47;;;;;;;17.10;13.02;;;-3.80;99.90;;;;;;7248516;19;2004332;-79
2021/12/26 14:18:31;;;;;;;18.15;11.85;;;-4.00;99.90;;;;;;7331497;19;20324;-80
2021/12/26 14:21:09;;;;;;;16.73;12.48;;;-4.00;99.90;;;;;;7288806;19;20356;-85
2021/12/26 14:23:53;;;;;;;19.15;12.85;;;-4.10;99.90;;;;;;7324975;19;20341;-83
2021/12/26 14:27:08;;;;;;;17.05;11.45;;;-4.20;99.90;;;;;;7375762;19;20368;-80
2021/12/26 14:30:21;;;;;;;17.50;11.93;;;-4.20;99.90;;;;;;7155450;19;2004447;-80
2021/12/26 14:33:21;;;;;;;18.38;13.18;;;-4.40;99.90;;;;;;7147012;19;2004279;-81
2021/12/26 14:36:11;;;;;;;18.20;11.83;;;-4.50;99.90;;;;;;7339713;19;20396;-82
2021/12/26 14:39:18;;;;;;;20.73;11.90;;;-4.40;99.90;;;;;;7240431;19;2004274;-88
2021/12/26 14:42:32;;;;;;;21.58;14.30;;;-4.60;99.90;;;;;;7339023;19;20403;-83
2021/12/26 14:45:27;;;;;;;21.98;14.45;;;-4.60;99.90;;;;;;7212244;19;2004236;-81
2021/12/26 14:48:12;;;;;;;27.00;19.42;;;-4.70;99.90;;;;;;7345850;19;20324;-85
2021/12/26 14:50:46;;;;;;;17.52;13.82;;;-4.80;99.90;;;;;;7258616;19;2004412;-80
2021/12/26 14:53:30;;;;;;;15.18;11.80;;;-4.80;99.90;;;;;;7258261;19;2004394;-87
2021/12/26 14:56:09;;;;;;;18.30;13.02;;;-4.90;99.90;;;;;;7356498;19;20320;-81
2021/12/26 14:58:50;;;;;;;19.73;12.88;;;-4.90;99.90;;;;;;7249205;19;2004375;-82
2021/12/26 15:01:38;;;;;;;14.95;11.07;;;-5.00;99.90;;;;;;7330841;19;20376;-80
2021/12/26 15:04:36;;;;;;;18.52;12.40;;;-5.10;99.90;;;;;;7348496;19;20349;-82
2021/12/26 15:07:36;;;;;;;20.58;11.38;;;-5.10;99.90;;;;;;7269261;19;2004241;-80